sensor_id;sensor_type;location;lat;lon;timestamp;pressure;altitude;pressure_sealevel;temperature;humidity
6942;BME280;3510;43.200;27.920;2023-01-05T00:00:02;101958.84;;;15.49;48.00
6942;BME280;3510;43.200;27.920;2023-01-05T00:02:45;101999.06;;;15.24;49.14
6942;BME280;3510;43.200;27.920;2023-01-05T00:05:25;102000.50;;;15.62;48.64
6942;BME280;3510;43.200;27.920;2023-01-05T00:08:06;101962.25;;;15.19;48.97
6942;BME280;3510;43.200;27.920;2023-01-05T00:10:47;101983.41;;;16.32;46.63
6942;BME280;3510;43.200;27.920;2023-01-05T00:13:31;101938.94;;;15.64;47.39
6942;BME280;3510;43.200;27.920;2023-01-05T00:16:16;101969.16;;;15.71;47.69
6942;BME280;3510;43.200;27.920;2023-01-05T00:50:58;101984.84;;;15.57;48.87
6942;BME280;3510;43.200;27.920;2023-01-05T00:53:39;101934.63;;;15.02;49.73
6942;BME280;3510;43.200;27.920;2023-01-05T00:56:19;101963.78;;;14.68;51.04
6942;BME280;3510;43.200;27.920;2023-01-05T00:59:00;101924.09;;;15.08;49.98
6942;BME280;3510;43.200;27.920;2023-01-05T01:01:41;101908.47;;;15.64;48.42
6942;BME280;3510;43.200;27.920;2023-01-05T01:04:10;101915.63;;;15.68;47.95
6942;BME280;3510;43.200;27.920;2023-01-05T01:19:34;101857.94;;;15.35;48.93
6942;BME280;3510;43.200;27.920;2023-01-05T01:24:45;101889.94;;;14.73;50.40
6942;BME280;3510;43.200;27.920;2023-01-05T01:27:28;101925.75;;;15.28;50.32
6942;BME280;3510;43.200;27.920;2023-01-05T01:30:10;101902.44;;;15.72;48.81
6942;BME280;3510;43.200;27.920;2023-01-05T01:32:51;101917.38;;;15.08;50.29
6942;BME280;3510;43.200;27.920;2023-01-05T01:35:35;101875.38;;;15.53;49.07
6942;BME280;3510;43.200;27.920;2023-01-05T01:38:16;101891.34;;;15.82;48.76
6942;BME280;3510;43.200;27.920;2023-01-05T01:40:57;101875.22;;;15.82;48.48
6942;BME280;3510;43.200;27.920;2023-01-05T01:43:42;101911.16;;;15.56;49.55
6942;BME280;3510;43.200;27.920;2023-01-05T01:46:24;101914.84;;;15.29;50.93
6942;BME280;3510;43.200;27.920;2023-01-05T01:49:08;101817.22;;;14.62;50.88
6942;BME280;3510;43.200;27.920;2023-01-05T02:07:46;101822.00;;;14.59;51.99
6942;BME280;3510;43.200;27.920;2023-01-05T02:10:35;101832.41;;;15.23;50.25
6942;BME280;3510;43.200;27.920;2023-01-05T02:13:29;101822.28;;;14.83;51.26
6942;BME280;3510;43.200;27.920;2023-01-05T02:16:20;101864.91;;;15.07;51.71
6942;BME280;3510;43.200;27.920;2023-01-05T02:18:59;101861.34;;;15.15;51.33
6942;BME280;3510;43.200;27.920;2023-01-05T02:21:55;101860.81;;;14.79;52.13
6942;BME280;3510;43.200;27.920;2023-01-05T04:30:51;101738.13;;;14.97;51.75
6942;BME280;3510;43.200;27.920;2023-01-05T04:33:18;101661.66;;;14.60;51.83
6942;BME280;3510;43.200;27.920;2023-01-05T04:35:45;101734.09;;;14.99;52.10
6942;BME280;3510;43.200;27.920;2023-01-05T04:38:13;101716.09;;;14.75;52.03
6942;BME280;3510;43.200;27.920;2023-01-05T04:40:40;101713.34;;;14.52;52.86
6942;BME280;3510;43.200;27.920;2023-01-05T04:43:07;101709.22;;;15.05;51.59
6942;BME280;3510;43.200;27.920;2023-01-05T04:45:34;101735.25;;;15.35;50.87
6942;BME280;3510;43.200;27.920;2023-01-05T04:48:03;101720.97;;;15.25;51.65
6942;BME280;3510;43.200;27.920;2023-01-05T04:50:30;101718.88;;;15.09;51.72
6942;BME280;3510;43.200;27.920;2023-01-05T04:52:56;101679.03;;;15.08;51.40
6942;BME280;3510;43.200;27.920;2023-01-05T04:55:24;101733.47;;;14.81;52.86
6942;BME280;3510;43.200;27.920;2023-01-05T04:57:52;101711.28;;;14.99;52.26
6942;BME280;3510;43.200;27.920;2023-01-05T05:00:19;101691.78;;;14.67;52.60
6942;BME280;3510;43.200;27.920;2023-01-05T05:02:46;101684.28;;;14.89;52.37
6942;BME280;3510;43.200;27.920;2023-01-05T05:05:15;101689.28;;;15.20;51.42
6942;BME280;3510;43.200;27.920;2023-01-05T05:07:42;101698.81;;;15.12;52.21
6942;BME280;3510;43.200;27.920;2023-01-05T05:10:09;101699.59;;;15.11;52.14
6942;BME280;3510;43.200;27.920;2023-01-05T05:12:36;101659.81;;;15.00;51.80
6942;BME280;3510;43.200;27.920;2023-01-05T05:15:03;101668.09;;;14.77;52.77
6942;BME280;3510;43.200;27.920;2023-01-05T05:17:30;101694.84;;;15.26;52.01
6942;BME280;3510;43.200;27.920;2023-01-05T05:19:57;101653.75;;;14.88;52.44
6942;BME280;3510;43.200;27.920;2023-01-05T05:22:26;101677.94;;;15.37;52.05
6942;BME280;3510;43.200;27.920;2023-01-05T05:24:53;101623.34;;;15.20;51.74
6942;BME280;3510;43.200;27.920;2023-01-05T05:29:55;101653.44;;;15.05;52.10
6942;BME280;3510;43.200;27.920;2023-01-05T05:32:22;101666.97;;;15.16;52.25
6942;BME280;3510;43.200;27.920;2023-01-05T05:34:49;101662.03;;;15.17;52.10
6942;BME280;3510;43.200;27.920;2023-01-05T05:37:16;101668.88;;;15.18;52.13
6942;BME280;3510;43.200;27.920;2023-01-05T05:39:45;101642.56;;;15.06;52.30
6942;BME280;3510;43.200;27.920;2023-01-05T05:42:12;101673.06;;;15.18;52.65
6942;BME280;3510;43.200;27.920;2023-01-05T05:44:40;101628.34;;;15.40;51.29
6942;BME280;3510;43.200;27.920;2023-01-05T05:47:07;101615.63;;;15.72;50.63
6942;BME280;3510;43.200;27.920;2023-01-05T05:49:34;101596.13;;;15.83;50.31
6942;BME280;3510;43.200;27.920;2023-01-05T05:52:01;101580.19;;;15.96;49.78
6942;BME280;3510;43.200;27.920;2023-01-05T05:54:28;101640.00;;;15.70;50.91
6942;BME280;3510;43.200;27.920;2023-01-05T05:56:57;101594.91;;;16.24;49.59
6942;BME280;3510;43.200;27.920;2023-01-05T05:59:24;101612.91;;;16.15;49.34
6942;BME280;3510;43.200;27.920;2023-01-05T06:01:52;101626.78;;;15.75;50.88
6942;BME280;3510;43.200;27.920;2023-01-05T06:04:19;101625.91;;;15.64;51.55
6942;BME280;3510;43.200;27.920;2023-01-05T06:06:46;101640.53;;;15.66;52.12
6942;BME280;3510;43.200;27.920;2023-01-05T06:09:13;101619.38;;;15.56;51.79
6942;BME280;3510;43.200;27.920;2023-01-05T06:11:40;101637.06;;;15.44;52.08
6942;BME280;3510;43.200;27.920;2023-01-05T06:14:09;101611.44;;;15.73;50.76
6942;BME280;3510;43.200;27.920;2023-01-05T06:16:36;101620.41;;;16.13;50.07
6942;BME280;3510;43.200;27.920;2023-01-05T06:19:04;101572.03;;;15.66;50.58
6942;BME280;3510;43.200;27.920;2023-01-05T06:21:31;101596.75;;;15.69;50.79
6942;BME280;3510;43.200;27.920;2023-01-05T06:23:58;101611.19;;;15.92;50.33
6942;BME280;3510;43.200;27.920;2023-01-05T06:26:26;101594.56;;;15.73;50.70
6942;BME280;3510;43.200;27.920;2023-01-05T06:28:53;101612.44;;;15.75;51.13
6942;BME280;3510;43.200;27.920;2023-01-05T06:31:21;101578.09;;;15.68;50.60
6942;BME280;3510;43.200;27.920;2023-01-05T06:33:49;101579.19;;;15.72;50.63
6942;BME280;3510;43.200;27.920;2023-01-05T06:36:16;101603.03;;;15.96;50.21
6942;BME280;3510;43.200;27.920;2023-01-05T06:38:43;101575.31;;;15.43;50.80
6942;BME280;3510;43.200;27.920;2023-01-05T06:41:11;101608.34;;;15.99;50.26
6942;BME280;3510;43.200;27.920;2023-01-05T06:43:38;101611.22;;;16.04;49.80
6942;BME280;3510;43.200;27.920;2023-01-05T06:46:05;101583.47;;;16.40;48.86
6942;BME280;3510;43.200;27.920;2023-01-05T06:48:34;101609.31;;;16.47;48.61
6942;BME280;3510;43.200;27.920;2023-01-05T06:51:01;101614.66;;;16.61;48.33
6942;BME280;3510;43.200;27.920;2023-01-05T06:53:31;101614.97;;;16.66;48.54
6942;BME280;3510;43.200;27.920;2023-01-05T06:55:58;101573.53;;;16.55;47.79
6942;BME280;3510;43.200;27.920;2023-01-05T06:58:25;101551.75;;;16.47;47.39
6942;BME280;3510;43.200;27.920;2023-01-05T07:00:53;101593.63;;;16.40;48.28
6942;BME280;3510;43.200;27.920;2023-01-05T07:03:20;101579.88;;;16.15;48.62
6942;BME280;3510;43.200;27.920;2023-01-05T07:08:30;101607.31;;;16.42;48.67
6942;BME280;3510;43.200;27.920;2023-01-05T07:10:57;101614.09;;;16.08;49.23
6942;BME280;3510;43.200;27.920;2023-01-05T07:13:26;101607.72;;;16.13;49.26
6942;BME280;3510;43.200;27.920;2023-01-05T07:15:52;101571.47;;;16.04;48.97
6942;BME280;3510;43.200;27.920;2023-01-05T07:18:19;101579.22;;;16.17;49.12
6942;BME280;3510;43.200;27.920;2023-01-05T07:20:48;101587.59;;;16.05;49.46
6942;BME280;3510;43.200;27.920;2023-01-05T07:23:19;101576.50;;;15.81;49.60
6942;BME280;3510;43.200;27.920;2023-01-05T07:25:47;101590.91;;;16.04;49.47
6942;BME280;3510;43.200;27.920;2023-01-05T07:28:14;101560.78;;;16.20;48.77
6942;BME280;3510;43.200;27.920;2023-01-05T07:30:41;101534.88;;;16.36;48.02
6942;BME280;3510;43.200;27.920;2023-01-05T07:33:10;101583.13;;;16.59;48.04
6942;BME280;3510;43.200;27.920;2023-01-05T07:35:37;101506.56;;;16.19;47.77
6942;BME280;3510;43.200;27.920;2023-01-05T07:38:04;101533.75;;;16.56;47.35
6942;BME280;3510;43.200;27.920;2023-01-05T07:48:27;101507.19;;;17.24;45.82
6942;BME280;3510;43.200;27.920;2023-01-05T07:50:58;101518.91;;;17.34;45.78
6942;BME280;3510;43.200;27.920;2023-01-05T07:53:39;101567.34;;;17.60;45.79
6942;BME280;3510;43.200;27.920;2023-01-05T07:56:22;101560.72;;;17.62;45.53
6942;BME280;3510;43.200;27.920;2023-01-05T07:59:03;101533.38;;;16.98;46.61
6942;BME280;3510;43.200;27.920;2023-01-05T08:01:43;101513.31;;;16.66;46.94
6942;BME280;3510;43.200;27.920;2023-01-05T09:13:01;101410.97;;;18.08;43.73
6942;BME280;3510;43.200;27.920;2023-01-05T09:15:28;101398.44;;;18.66;42.16
6942;BME280;3510;43.200;27.920;2023-01-05T09:17:55;101365.31;;;18.25;42.80
6942;BME280;3510;43.200;27.920;2023-01-05T09:20:22;101379.81;;;17.86;44.28
6942;BME280;3510;43.200;27.920;2023-01-05T09:23:02;101336.72;;;17.89;43.56
6942;BME280;3510;43.200;27.920;2023-01-05T09:25:29;101360.41;;;18.01;43.46
6942;BME280;3510;43.200;27.920;2023-01-05T09:27:58;101326.53;;;17.76;43.70
6942;BME280;3510;43.200;27.920;2023-01-05T09:30:58;101374.09;;;18.30;43.34
6942;BME280;3510;43.200;27.920;2023-01-05T09:33:25;101361.66;;;18.62;42.87
6942;BME280;3510;43.200;27.920;2023-01-05T09:35:53;101370.38;;;18.94;42.09
6942;BME280;3510;43.200;27.920;2023-01-05T09:38:20;101335.78;;;18.56;42.80
6942;BME280;3510;43.200;27.920;2023-01-05T09:40:49;101348.06;;;18.21;43.42
6942;BME280;3510;43.200;27.920;2023-01-05T09:43:21;101355.59;;;18.32;43.21
6942;BME280;3510;43.200;27.920;2023-01-05T09:45:49;101344.72;;;18.08;43.64
6942;BME280;3510;43.200;27.920;2023-01-05T09:48:19;101320.91;;;18.49;42.39
6942;BME280;3510;43.200;27.920;2023-01-05T09:50:48;101321.13;;;19.54;41.09
6942;BME280;3510;43.200;27.920;2023-01-05T09:53:26;101329.13;;;19.16;41.22
6942;BME280;3510;43.200;27.920;2023-01-05T09:55:54;101297.09;;;19.66;40.54
6942;BME280;3510;43.200;27.920;2023-01-05T09:58:24;101279.53;;;18.96;41.21
6942;BME280;3510;43.200;27.920;2023-01-05T10:01:05;101277.47;;;18.76;41.69
6942;BME280;3510;43.200;27.920;2023-01-05T10:03:38;101287.84;;;18.79;42.00
6942;BME280;3510;43.200;27.920;2023-01-05T10:06:11;101196.19;;;18.37;41.74
6942;BME280;3510;43.200;27.920;2023-01-05T10:08:41;101247.56;;;18.30;42.24
6942;BME280;3510;43.200;27.920;2023-01-05T10:11:13;101245.88;;;18.59;41.97
6942;BME280;3510;43.200;27.920;2023-01-05T10:14:05;101243.66;;;18.50;41.84
6942;BME280;3510;43.200;27.920;2023-01-05T10:16:36;101159.94;;;18.13;41.86
6942;BME280;3510;43.200;27.920;2023-01-05T10:19:09;101217.81;;;19.33;40.54
6942;BME280;3510;43.200;27.920;2023-01-05T10:21:47;101243.38;;;18.89;41.71
6942;BME280;3510;43.200;27.920;2023-01-05T10:24:25;101195.94;;;19.07;40.74
6942;BME280;3510;43.200;27.920;2023-01-05T10:32:12;101185.84;;;20.52;38.44
6942;BME280;3510;43.200;27.920;2023-01-05T10:34:53;101204.22;;;20.62;38.30
6942;BME280;3510;43.200;27.920;2023-01-05T10:37:43;101154.47;;;20.22;38.04
6942;BME280;3510;43.200;27.920;2023-01-05T10:40:19;101193.50;;;20.36;38.47
6942;BME280;3510;43.200;27.920;2023-01-05T10:42:55;101121.81;;;19.51;39.54
6942;BME280;3510;43.200;27.920;2023-01-05T10:45:30;101190.16;;;19.72;39.71
6942;BME280;3510;43.200;27.920;2023-01-05T10:47:57;101151.63;;;19.36;40.10
6942;BME280;3510;43.200;27.920;2023-01-05T10:50:32;101181.06;;;19.77;39.91
6942;BME280;3510;43.200;27.920;2023-01-05T10:53:05;101156.41;;;19.77;39.62
6942;BME280;3510;43.200;27.920;2023-01-05T10:55:42;101123.31;;;20.29;38.32
6942;BME280;3510;43.200;27.920;2023-01-05T10:58:20;101121.97;;;19.87;39.12
6942;BME280;3510;43.200;27.920;2023-01-05T11:00:48;101174.75;;;19.87;39.75
6942;BME280;3510;43.200;27.920;2023-01-05T11:03:18;101158.16;;;20.62;38.25
6942;BME280;3510;43.200;27.920;2023-01-05T11:05:52;101139.28;;;20.25;38.88
6942;BME280;3510;43.200;27.920;2023-01-05T11:08:21;101138.91;;;19.21;40.80
6942;BME280;3510;43.200;27.920;2023-01-05T11:10:52;101131.56;;;20.58;38.32
6942;BME280;3510;43.200;27.920;2023-01-05T11:13:38;101124.25;;;20.66;38.14
6942;BME280;3510;43.200;27.920;2023-01-05T11:16:09;101128.19;;;20.95;37.78
6942;BME280;3510;43.200;27.920;2023-01-05T11:18:45;101114.66;;;20.97;37.46
6942;BME280;3510;43.200;27.920;2023-01-05T11:21:16;101110.59;;;20.49;38.32
6942;BME280;3510;43.200;27.920;2023-01-05T11:23:45;101123.25;;;20.46;38.72
6942;BME280;3510;43.200;27.920;2023-01-05T11:26:36;101110.19;;;20.23;38.82
6942;BME280;3510;43.200;27.920;2023-01-05T11:29:12;101076.69;;;20.35;38.46
6942;BME280;3510;43.200;27.920;2023-01-05T11:31:42;101104.53;;;20.29;39.09
6942;BME280;3510;43.200;27.920;2023-01-05T11:34:22;101057.38;;;21.13;37.16
6942;BME280;3510;43.200;27.920;2023-01-05T11:36:55;101060.28;;;20.84;37.09
6942;BME280;3510;43.200;27.920;2023-01-05T11:39:27;101082.28;;;20.80;37.68
6942;BME280;3510;43.200;27.920;2023-01-05T11:42:13;101066.59;;;20.54;38.05
6942;BME280;3510;43.200;27.920;2023-01-05T11:44:42;101092.47;;;21.16;37.27
6942;BME280;3510;43.200;27.920;2023-01-05T11:47:19;101062.31;;;20.37;38.30
6942;BME280;3510;43.200;27.920;2023-01-05T11:49:47;101077.88;;;21.91;36.14
6942;BME280;3510;43.200;27.920;2023-01-05T11:52:29;101050.22;;;21.63;36.25
6942;BME280;3510;43.200;27.920;2023-01-05T11:54:58;101052.06;;;21.28;36.75
6942;BME280;3510;43.200;27.920;2023-01-05T11:57:25;101054.19;;;21.17;37.01
6942;BME280;3510;43.200;27.920;2023-01-05T11:59:53;101025.78;;;20.93;36.84
6942;BME280;3510;43.200;27.920;2023-01-05T12:02:53;101050.84;;;21.20;36.59
6942;BME280;3510;43.200;27.920;2023-01-05T12:05:35;101048.66;;;20.90;36.58
6942;BME280;3510;43.200;27.920;2023-01-05T12:08:12;101041.00;;;20.72;36.93
6942;BME280;3510;43.200;27.920;2023-01-05T12:11:02;101052.53;;;21.37;36.69
6942;BME280;3510;43.200;27.920;2023-01-05T12:13:52;101035.41;;;21.77;35.97
6942;BME280;3510;43.200;27.920;2023-01-05T12:16:45;100983.09;;;21.12;36.38
6942;BME280;3510;43.200;27.920;2023-01-05T12:19:41;101018.03;;;20.20;38.30
6942;BME280;3510;43.200;27.920;2023-01-05T12:25:29;101049.78;;;20.08;39.06
6942;BME280;3510;43.200;27.920;2023-01-05T12:28:15;101055.47;;;20.72;38.13
6942;BME280;3510;43.200;27.920;2023-01-05T12:30:49;101039.63;;;20.61;37.91
6942;BME280;3510;43.200;27.920;2023-01-05T12:33:49;101025.28;;;20.29;38.08
6942;BME280;3510;43.200;27.920;2023-01-05T12:36:31;101041.28;;;20.96;37.36
6942;BME280;3510;43.200;27.920;2023-01-05T12:39:36;101003.75;;;20.97;36.81
6942;BME280;3510;43.200;27.920;2023-01-05T12:42:32;101011.91;;;21.85;35.66
6942;BME280;3510;43.200;27.920;2023-01-05T12:45:18;101017.63;;;21.59;36.06
6942;BME280;3510;43.200;27.920;2023-01-05T12:48:02;100997.00;;;21.97;35.27
6942;BME280;3510;43.200;27.920;2023-01-05T12:50:34;101022.06;;;22.46;35.20
6942;BME280;3510;43.200;27.920;2023-01-05T12:53:14;101007.63;;;21.26;36.65
6942;BME280;3510;43.200;27.920;2023-01-05T12:55:47;100976.63;;;21.20;36.75
6942;BME280;3510;43.200;27.920;2023-01-05T12:58:44;100929.69;;;20.81;36.91
6942;BME280;3510;43.200;27.920;2023-01-05T13:01:20;100996.13;;;20.98;37.36
6942;BME280;3510;43.200;27.920;2023-01-05T13:03:51;101032.53;;;21.30;37.34
6942;BME280;3510;43.200;27.920;2023-01-05T13:06:22;100965.66;;;22.03;36.00
6942;BME280;3510;43.200;27.920;2023-01-05T13:08:53;101016.97;;;22.05;36.05
6942;BME280;3510;43.200;27.920;2023-01-05T13:11:26;100988.00;;;22.28;35.15
6942;BME280;3510;43.200;27.920;2023-01-05T13:14:01;101020.41;;;21.65;36.75
6942;BME280;3510;43.200;27.920;2023-01-05T13:16:36;101017.53;;;22.39;35.53
6942;BME280;3510;43.200;27.920;2023-01-05T13:19:10;101030.59;;;21.63;36.78
6942;BME280;3510;43.200;27.920;2023-01-05T13:21:42;100998.44;;;21.50;36.71
6942;BME280;3510;43.200;27.920;2023-01-05T13:24:13;100984.38;;;21.21;36.71
6942;BME280;3510;43.200;27.920;2023-01-05T13:26:50;101032.03;;;21.37;37.02
6942;BME280;3510;43.200;27.920;2023-01-05T13:29:22;101029.19;;;21.50;36.89
6942;BME280;3510;43.200;27.920;2023-01-05T13:32:21;100971.91;;;21.29;36.67
6942;BME280;3510;43.200;27.920;2023-01-05T13:35:04;100944.16;;;21.19;36.85
6942;BME280;3510;43.200;27.920;2023-01-05T13:40:53;100935.25;;;21.49;35.63
6942;BME280;3510;43.200;27.920;2023-01-05T13:43:48;100978.03;;;21.33;36.65
6942;BME280;3510;43.200;27.920;2023-01-05T13:49:27;100940.50;;;21.94;35.41
6942;BME280;3510;43.200;27.920;2023-01-05T13:52:00;100974.31;;;21.86;35.71
6942;BME280;3510;43.200;27.920;2023-01-05T13:54:38;100891.31;;;20.81;36.80
6942;BME280;3510;43.200;27.920;2023-01-05T13:57:07;100962.75;;;21.74;35.92
6942;BME280;3510;43.200;27.920;2023-01-05T13:59:36;100899.97;;;21.63;35.61
6942;BME280;3510;43.200;27.920;2023-01-05T14:02:27;100952.34;;;21.50;36.30
6942;BME280;3510;43.200;27.920;2023-01-05T14:04:55;100971.31;;;20.96;37.26
6942;BME280;3510;43.200;27.920;2023-01-05T14:07:23;100952.97;;;21.85;35.98
6942;BME280;3510;43.200;27.920;2023-01-05T14:09:53;100915.47;;;22.53;34.43
6942;BME280;3510;43.200;27.920;2023-01-05T14:12:42;100936.09;;;22.13;34.93
6942;BME280;3510;43.200;27.920;2023-01-05T14:15:27;100936.09;;;22.56;34.71
6942;BME280;3510;43.200;27.920;2023-01-05T14:17:59;100909.19;;;22.69;34.19
6942;BME280;3510;43.200;27.920;2023-01-05T14:20:33;100952.31;;;22.55;34.61
6942;BME280;3510;43.200;27.920;2023-01-05T14:23:03;100909.88;;;22.41;34.48
6942;BME280;3510;43.200;27.920;2023-01-05T14:25:45;100926.72;;;21.70;35.95
6942;BME280;3510;43.200;27.920;2023-01-05T14:28:40;100950.75;;;21.53;36.63
6942;BME280;3510;43.200;27.920;2023-01-05T14:31:45;100954.66;;;20.86;37.75
6942;BME280;3510;43.200;27.920;2023-01-05T14:34:18;100950.34;;;20.30;38.31
6942;BME280;3510;43.200;27.920;2023-01-05T14:36:59;100948.88;;;20.90;37.71
6942;BME280;3510;43.200;27.920;2023-01-05T14:39:30;100910.25;;;20.84;37.38
6942;BME280;3510;43.200;27.920;2023-01-05T14:42:04;100952.47;;;21.54;36.95
6942;BME280;3510;43.200;27.920;2023-01-05T14:44:35;100937.69;;;21.08;37.29
6942;BME280;3510;43.200;27.920;2023-01-05T14:47:07;100957.00;;;20.82;37.71
6942;BME280;3510;43.200;27.920;2023-01-05T14:49:38;100905.56;;;20.38;38.52
6942;BME280;3510;43.200;27.920;2023-01-05T14:52:15;100942.09;;;21.50;36.58
6942;BME280;3510;43.200;27.920;2023-01-05T14:55:08;100951.56;;;21.93;35.90
6942;BME280;3510;43.200;27.920;2023-01-05T14:57:46;100939.38;;;20.50;38.59
6942;BME280;3510;43.200;27.920;2023-01-05T15:00:17;100929.31;;;20.53;38.16
6942;BME280;3510;43.200;27.920;2023-01-05T15:02:54;100935.66;;;20.26;39.20
6942;BME280;3510;43.200;27.920;2023-01-05T15:05:25;100962.72;;;20.76;38.69
6942;BME280;3510;43.200;27.920;2023-01-05T15:08:15;100959.69;;;20.29;39.53
6942;BME280;3510;43.200;27.920;2023-01-05T15:14:38;100954.41;;;19.73;40.52
6942;BME280;3510;43.200;27.920;2023-01-05T15:27:27;100917.25;;;19.79;39.88
6942;BME280;3510;43.200;27.920;2023-01-05T15:30:39;100948.00;;;20.17;39.55
6942;BME280;3510;43.200;27.920;2023-01-05T15:33:12;100908.88;;;19.14;40.95
6942;BME280;3510;43.200;27.920;2023-01-05T15:35:59;100927.09;;;19.38;40.99
6942;BME280;3510;43.200;27.920;2023-01-05T15:38:45;100951.34;;;19.98;40.12
6942;BME280;3510;43.200;27.920;2023-01-05T15:41:17;100847.72;;;18.82;41.26
6942;BME280;3510;43.200;27.920;2023-01-05T15:47:27;100897.25;;;19.02;41.49
6942;BME280;3510;43.200;27.920;2023-01-05T15:49:58;100941.56;;;19.21;41.44
6942;BME280;3510;43.200;27.920;2023-01-05T15:52:39;100924.25;;;18.99;41.91
6942;BME280;3510;43.200;27.920;2023-01-05T15:55:20;100976.78;;;19.12;41.92
6942;BME280;3510;43.200;27.920;2023-01-05T15:58:03;100911.16;;;19.09;41.15
6942;BME280;3510;43.200;27.920;2023-01-05T16:00:59;100909.47;;;19.26;41.21
6942;BME280;3510;43.200;27.920;2023-01-05T16:16:13;100905.56;;;19.16;41.62
6942;BME280;3510;43.200;27.920;2023-01-05T16:18:47;100900.47;;;19.32;41.32
6942;BME280;3510;43.200;27.920;2023-01-05T16:21:33;100933.09;;;19.22;41.80
6942;BME280;3510;43.200;27.920;2023-01-05T16:24:06;100907.13;;;19.47;41.06
6942;BME280;3510;43.200;27.920;2023-01-05T16:26:39;100858.44;;;19.26;40.96
6942;BME280;3510;43.200;27.920;2023-01-05T16:29:31;100838.19;;;19.29;40.49
6942;BME280;3510;43.200;27.920;2023-01-05T16:32:29;100899.66;;;19.68;40.55
6942;BME280;3510;43.200;27.920;2023-01-05T16:38:00;100868.53;;;18.74;42.16
6942;BME280;3510;43.200;27.920;2023-01-05T16:40:27;100871.78;;;18.55;42.51
6942;BME280;3510;43.200;27.920;2023-01-05T16:43:01;100908.28;;;18.86;42.60
6942;BME280;3510;43.200;27.920;2023-01-05T16:45:30;100919.53;;;18.74;42.56
6942;BME280;3510;43.200;27.920;2023-01-05T16:51:41;100920.44;;;18.43;42.97
6942;BME280;3510;43.200;27.920;2023-01-05T16:54:25;100913.72;;;19.25;41.16
6942;BME280;3510;43.200;27.920;2023-01-05T16:57:32;100917.16;;;18.93;41.68
6942;BME280;3510;43.200;27.920;2023-01-05T17:00:35;100908.84;;;19.30;40.88
6942;BME280;3510;43.200;27.920;2023-01-05T17:03:12;100912.84;;;18.92;41.64
6942;BME280;3510;43.200;27.920;2023-01-05T17:06:04;100889.34;;;18.81;41.50
6942;BME280;3510;43.200;27.920;2023-01-05T17:08:34;100867.59;;;18.88;41.27
6942;BME280;3510;43.200;27.920;2023-01-05T17:11:15;100839.84;;;18.61;41.83
6942;BME280;3510;43.200;27.920;2023-01-05T17:13:46;100890.06;;;18.79;42.01
6942;BME280;3510;43.200;27.920;2023-01-05T17:16:14;100822.53;;;18.40;42.10
6942;BME280;3510;43.200;27.920;2023-01-05T17:18:55;100857.03;;;18.66;41.81
6942;BME280;3510;43.200;27.920;2023-01-05T17:21:35;100858.75;;;18.81;41.57
6942;BME280;3510;43.200;27.920;2023-01-05T17:24:34;100890.47;;;19.03;41.39
6942;BME280;3510;43.200;27.920;2023-01-05T17:27:14;100852.09;;;19.01;40.77
6942;BME280;3510;43.200;27.920;2023-01-05T17:29:55;100865.69;;;18.84;41.50
6942;BME280;3510;43.200;27.920;2023-01-05T17:32:24;100862.41;;;18.39;42.44
6942;BME280;3510;43.200;27.920;2023-01-05T17:35:05;100831.75;;;17.90;43.21
6942;BME280;3510;43.200;27.920;2023-01-05T17:37:46;100856.69;;;18.27;42.71
6942;BME280;3510;43.200;27.920;2023-01-05T17:40:17;100873.41;;;18.38;42.83
6942;BME280;3510;43.200;27.920;2023-01-05T17:42:45;100851.69;;;17.82;43.34
6942;BME280;3510;43.200;27.920;2023-01-05T17:45:14;100828.28;;;17.58;43.71
6942;BME280;3510;43.200;27.920;2023-01-05T17:47:42;100862.72;;;17.98;43.51
6942;BME280;3510;43.200;27.920;2023-01-05T17:50:12;100842.06;;;17.77;43.72
6942;BME280;3510;43.200;27.920;2023-01-05T17:52:40;100835.81;;;17.57;44.00
6942;BME280;3510;43.200;27.920;2023-01-05T17:55:08;100844.28;;;18.02;43.33
6942;BME280;3510;43.200;27.920;2023-01-05T17:57:38;100858.00;;;17.89;43.82
6942;BME280;3510;43.200;27.920;2023-01-05T18:00:09;100868.66;;;18.13;43.39
6942;BME280;3510;43.200;27.920;2023-01-05T18:02:37;100792.75;;;17.45;43.69
6942;BME280;3510;43.200;27.920;2023-01-05T18:05:05;100808.63;;;17.41;44.17
6942;BME280;3510;43.200;27.920;2023-01-05T18:07:33;100834.03;;;17.71;43.25
6942;BME280;3510;43.200;27.920;2023-01-05T18:10:01;100848.09;;;17.49;43.97
6942;BME280;3510;43.200;27.920;2023-01-05T18:12:28;100856.16;;;17.86;43.23
6942;BME280;3510;43.200;27.920;2023-01-05T18:14:56;100853.13;;;17.77;43.08
6942;BME280;3510;43.200;27.920;2023-01-05T18:17:24;100832.56;;;17.59;43.48
6942;BME280;3510;43.200;27.920;2023-01-05T18:19:51;100835.56;;;17.37;43.94
6942;BME280;3510;43.200;27.920;2023-01-05T18:22:18;100862.88;;;17.40;44.41
6942;BME280;3510;43.200;27.920;2023-01-05T18:24:45;100878.88;;;17.69;43.89
6942;BME280;3510;43.200;27.920;2023-01-05T18:27:12;100816.19;;;17.25;44.23
6942;BME280;3510;43.200;27.920;2023-01-05T18:29:40;100833.28;;;17.12;44.57
6942;BME280;3510;43.200;27.920;2023-01-05T18:32:09;100844.47;;;16.86;45.51
6942;BME280;3510;43.200;27.920;2023-01-05T18:34:36;100843.06;;;16.77;45.52
6942;BME280;3510;43.200;27.920;2023-01-05T18:37:04;100839.41;;;16.73;45.64
6942;BME280;3510;43.200;27.920;2023-01-05T18:39:31;100868.34;;;17.03;45.49
6942;BME280;3510;43.200;27.920;2023-01-05T18:41:58;100869.47;;;16.93;45.51
6942;BME280;3510;43.200;27.920;2023-01-05T18:44:25;100868.63;;;17.08;44.93
6942;BME280;3510;43.200;27.920;2023-01-05T18:46:52;100869.78;;;17.42;44.56
6942;BME280;3510;43.200;27.920;2023-01-05T18:49:21;100878.22;;;16.29;46.93
6942;BME280;3510;43.200;27.920;2023-01-05T18:51:49;100862.00;;;16.82;45.88
6942;BME280;3510;43.200;27.920;2023-01-05T18:54:17;100865.00;;;17.04;45.19
6942;BME280;3510;43.200;27.920;2023-01-05T18:56:45;100838.72;;;17.18;44.74
6942;BME280;3510;43.200;27.920;2023-01-05T18:59:12;100871.19;;;17.23;44.87
6942;BME280;3510;43.200;27.920;2023-01-05T19:01:39;100862.41;;;16.75;45.53